createdAt,value
2018-07-12T00:02:17.833Z,13.00
2018-07-12T00:04:45.157Z,12.90
2018-07-12T00:07:12.499Z,12.90
2018-07-12T00:09:39.953Z,12.90
2018-07-12T00:12:07.339Z,12.90
2018-07-12T00:14:34.814Z,12.80
2018-07-12T00:17:02.384Z,12.80
2018-07-12T00:19:29.703Z,12.90
2018-07-12T00:21:57.044Z,12.90
2018-07-12T00:24:24.358Z,13.00
2018-07-12T00:26:52.380Z,13.00
2018-07-12T00:29:19.832Z,12.90
2018-07-12T00:31:47.186Z,12.80
2018-07-12T00:34:14.497Z,12.80
2018-07-12T00:36:41.847Z,12.80
2018-07-12T00:39:09.212Z,12.80
2018-07-12T00:41:37.003Z,12.80
2018-07-12T00:44:04.481Z,12.80
2018-07-12T00:46:31.844Z,12.80
2018-07-12T00:48:59.177Z,12.70
2018-07-12T00:51:26.473Z,12.80
2018-07-12T00:53:53.787Z,12.70
2018-07-12T00:56:21.281Z,12.70
2018-07-12T00:58:48.693Z,12.70
2018-07-12T01:01:15.954Z,12.60
2018-07-12T01:03:43.298Z,12.70
2018-07-12T01:06:10.599Z,12.60
2018-07-12T01:08:38.242Z,12.60
2018-07-12T01:11:05.565Z,12.50
2018-07-12T01:13:32.861Z,12.60
2018-07-12T01:16:00.214Z,12.60
2018-07-12T01:18:27.505Z,12.60
2018-07-12T01:20:54.844Z,12.70
2018-07-12T01:23:22.326Z,12.60
2018-07-12T01:25:49.659Z,12.70
2018-07-12T01:28:16.968Z,12.60
2018-07-12T01:30:44.246Z,12.50
2018-07-12T01:33:11.663Z,12.50
2018-07-12T01:35:38.990Z,12.50
2018-07-12T01:38:06.751Z,12.40
2018-07-12T01:40:34.055Z,12.40
2018-07-12T01:43:01.370Z,12.40
2018-07-12T01:45:28.728Z,12.40
2018-07-12T01:47:56.073Z,12.30
2018-07-12T01:50:23.361Z,12.30
2018-07-12T01:52:50.638Z,12.30
2018-07-12T01:55:17.956Z,12.40
2018-07-12T01:57:45.309Z,12.40
2018-07-12T02:00:12.686Z,12.30
2018-07-12T02:02:39.951Z,12.30
2018-07-12T02:07:34.891Z,12.30
2018-07-12T02:10:02.247Z,12.30
2018-07-12T02:12:29.529Z,12.30
2018-07-12T02:14:56.879Z,12.30
2018-07-12T02:17:24.168Z,12.30
2018-07-12T02:19:51.503Z,12.30
2018-07-12T02:22:18.788Z,12.30
2018-07-12T02:24:46.070Z,12.30
2018-07-12T02:27:13.470Z,12.20
2018-07-12T02:29:40.905Z,12.20
2018-07-12T02:32:08.194Z,12.20
2018-07-12T02:34:35.516Z,12.30
2018-07-12T02:37:02.803Z,12.30
2018-07-12T02:39:30.134Z,12.30
2018-07-12T02:41:57.465Z,12.20
2018-07-12T02:44:25.040Z,12.20
2018-07-12T02:46:52.354Z,12.20
2018-07-12T02:49:19.630Z,12.20
2018-07-12T02:51:47.123Z,12.30
2018-07-12T02:54:14.482Z,12.20
2018-07-12T02:56:41.768Z,12.30
2018-07-12T02:59:09.104Z,12.20
2018-07-12T03:01:36.423Z,12.20
2018-07-12T03:04:03.818Z,12.10
2018-07-12T03:06:31.153Z,12.20
2018-07-12T03:08:58.448Z,12.20
2018-07-12T03:11:25.766Z,12.10
2018-07-12T03:13:53.045Z,12.10
2018-07-12T03:16:20.361Z,12.10
2018-07-12T03:21:15.365Z,12.10
2018-07-12T03:23:42.632Z,12.10
2018-07-12T03:26:09.927Z,12.10
2018-07-12T03:28:37.224Z,12.10
2018-07-12T03:31:04.526Z,12.10
2018-07-12T03:33:31.788Z,12.00
2018-07-12T03:35:59.555Z,12.10
2018-07-12T03:38:27.030Z,12.10
2018-07-12T03:40:54.436Z,12.00
2018-07-12T03:43:21.694Z,12.00
2018-07-12T03:45:48.991Z,12.00
2018-07-12T03:48:16.287Z,11.90
2018-07-12T03:50:43.551Z,11.90
2018-07-12T03:53:11.040Z,11.90
2018-07-12T03:55:38.339Z,12.00
2018-07-12T03:58:05.621Z,12.00
2018-07-12T04:00:33.011Z,12.00
2018-07-12T04:03:00.334Z,12.00
2018-07-12T04:05:27.643Z,12.00
2018-07-12T04:07:55.067Z,12.00
2018-07-12T04:10:28.710Z,12.00
2018-07-12T04:12:56.066Z,12.00
2018-07-12T04:15:23.393Z,11.90
2018-07-12T04:17:50.670Z,12.00
2018-07-12T04:20:18.118Z,12.10
2018-07-12T04:22:45.503Z,12.10
2018-07-12T04:27:40.507Z,12.10
2018-07-12T04:30:07.808Z,12.10
2018-07-12T04:32:35.258Z,12.10
2018-07-12T04:35:02.552Z,12.00
2018-07-12T04:37:29.825Z,12.10
2018-07-12T04:39:57.127Z,12.10
2018-07-12T04:42:24.410Z,12.20
2018-07-12T04:44:51.737Z,12.20
2018-07-12T04:47:19.078Z,12.20
2018-07-12T04:49:46.392Z,12.20
2018-07-12T04:52:13.783Z,12.10
2018-07-12T04:54:41.079Z,12.10
2018-07-12T04:57:08.528Z,12.20
2018-07-12T04:59:36.035Z,12.30
2018-07-12T05:02:03.391Z,12.30
2018-07-12T05:04:30.713Z,12.30
2018-07-12T05:06:58.066Z,12.40
2018-07-12T05:09:25.342Z,12.40
2018-07-12T05:11:52.725Z,12.50
2018-07-12T05:14:20.001Z,12.60
2018-07-12T05:16:47.360Z,12.60
2018-07-12T05:19:14.692Z,12.60
2018-07-12T05:21:41.982Z,12.70
2018-07-12T05:24:09.256Z,12.80
2018-07-12T05:26:36.595Z,12.90
2018-07-12T05:29:03.867Z,13.00
2018-07-12T05:31:31.205Z,13.10
2018-07-12T05:33:58.492Z,13.20
2018-07-12T05:37:02.945Z,13.30
2018-07-12T05:39:31.421Z,13.50
2018-07-12T05:41:59.969Z,13.60
2018-07-12T05:44:28.265Z,13.70
2018-07-12T05:46:56.750Z,13.80
2018-07-12T05:49:25.206Z,13.90
2018-07-12T05:51:53.664Z,13.90
2018-07-12T05:54:22.119Z,14.00
2018-07-12T05:56:50.444Z,14.10
2018-07-12T05:59:18.923Z,14.20
2018-07-12T06:01:58.772Z,14.30
2018-07-12T06:04:27.177Z,14.40
2018-07-12T06:06:55.753Z,14.60
2018-07-12T06:09:24.169Z,14.70
2018-07-12T06:11:52.571Z,15.00
2018-07-12T06:14:20.987Z,15.00
2018-07-12T06:16:49.466Z,15.10
2018-07-12T06:19:18.094Z,15.30
2018-07-12T06:21:46.486Z,15.40
2018-07-12T06:24:15.111Z,15.40
2018-07-12T06:26:43.552Z,15.60
2018-07-12T06:29:12.031Z,15.70
2018-07-12T06:31:40.579Z,15.80
2018-07-12T06:34:08.939Z,16.00
2018-07-12T06:36:37.380Z,16.10
2018-07-12T06:39:07.770Z,16.10
2018-07-12T06:41:36.203Z,16.20
2018-07-12T06:44:04.654Z,16.30
2018-07-12T06:46:33.424Z,16.40
2018-07-12T06:49:01.894Z,16.50
2018-07-12T06:51:30.429Z,16.70
2018-07-12T06:53:58.954Z,16.80
2018-07-12T06:56:27.430Z,17.00
2018-07-12T06:58:55.874Z,17.00
2018-07-12T07:01:24.378Z,17.10
2018-07-12T07:03:52.941Z,17.30
2018-07-12T07:06:21.301Z,17.50
2018-07-12T07:08:49.698Z,17.60
2018-07-12T07:11:18.132Z,17.60
2018-07-12T07:13:46.556Z,17.70
2018-07-12T07:16:14.980Z,17.80
2018-07-12T07:18:43.399Z,17.90
2018-07-12T07:21:11.897Z,18.10
2018-07-12T07:23:40.270Z,18.20
2018-07-12T07:26:08.740Z,18.30
2018-07-12T07:28:37.088Z,18.50
2018-07-12T07:31:05.734Z,18.60
2018-07-12T07:33:34.186Z,18.70
2018-07-12T07:36:02.590Z,18.60
2018-07-12T07:38:31.085Z,18.70
2018-07-12T07:40:59.483Z,18.90
2018-07-12T07:43:27.929Z,18.90
2018-07-12T07:45:56.425Z,19.10
2018-07-12T07:48:24.862Z,19.20
2018-07-12T07:50:53.216Z,19.40
2018-07-12T07:53:21.627Z,19.50
2018-07-12T07:55:50.434Z,19.60
2018-07-12T07:58:18.895Z,19.50
2018-07-12T08:00:47.404Z,19.60
2018-07-12T08:03:15.949Z,19.70
2018-07-12T08:05:44.373Z,19.80
2018-07-12T08:08:12.807Z,19.90
2018-07-12T08:10:41.236Z,20.00
2018-07-12T08:13:09.576Z,20.10
2018-07-12T08:15:38.044Z,20.10
2018-07-12T08:18:06.738Z,20.10
2018-07-12T08:20:35.166Z,20.30
2018-07-12T08:23:03.856Z,20.20
2018-07-12T08:25:32.306Z,20.40
2018-07-12T08:28:11.901Z,20.40
2018-07-12T08:30:40.269Z,20.30
2018-07-12T08:33:08.638Z,20.30
2018-07-12T08:35:37.103Z,20.50
2018-07-12T08:38:05.655Z,20.70
2018-07-12T08:40:33.997Z,20.80
2018-07-12T08:43:02.330Z,20.80
2018-07-12T08:45:30.621Z,20.80
2018-07-12T08:47:58.955Z,20.80
2018-07-12T08:50:27.676Z,21.00
2018-07-12T08:52:56.052Z,21.20
2018-07-12T08:55:24.404Z,21.30
2018-07-12T08:57:52.759Z,21.40
2018-07-12T09:00:21.161Z,21.40
2018-07-12T09:02:49.629Z,21.40
2018-07-12T09:05:18.048Z,21.60
2018-07-12T09:07:46.505Z,21.70
2018-07-12T09:10:15.327Z,21.60
2018-07-12T09:12:43.860Z,21.60
2018-07-12T09:15:12.381Z,21.60
2018-07-12T09:17:40.767Z,21.50
2018-07-12T09:20:09.127Z,21.60
2018-07-12T09:22:37.495Z,21.60
2018-07-12T09:25:06.032Z,21.40
2018-07-12T09:27:34.437Z,21.30
2018-07-12T09:30:02.743Z,21.50
2018-07-12T09:32:31.240Z,21.60
2018-07-12T09:34:59.691Z,21.70
2018-07-12T09:37:28.077Z,21.70
2018-07-12T09:39:56.457Z,21.90
2018-07-12T09:42:24.874Z,21.90
2018-07-12T09:44:53.212Z,22.00
2018-07-12T09:47:21.739Z,22.00
2018-07-12T09:49:50.317Z,22.10
2018-07-12T09:52:24.292Z,22.10
2018-07-12T09:54:52.617Z,22.10
2018-07-12T09:57:32.307Z,22.20
2018-07-12T10:00:00.820Z,22.20
2018-07-12T10:02:34.493Z,22.20
2018-07-12T10:05:02.971Z,22.20
2018-07-12T10:07:36.786Z,22.20
2018-07-12T10:10:05.247Z,22.30
2018-07-12T10:13:36.712Z,22.30
2018-07-12T10:16:09.442Z,22.30
2018-07-12T10:18:37.881Z,22.40
2018-07-12T10:21:06.475Z,22.40
2018-07-12T10:26:03.329Z,22.60
2018-07-12T10:28:31.762Z,22.70
2018-07-12T10:31:00.135Z,22.80
2018-07-12T10:33:28.585Z,22.90
2018-07-12T10:35:57.211Z,23.00
2018-07-12T10:38:25.641Z,23.10
2018-07-12T10:40:54.014Z,23.10
2018-07-12T10:43:22.612Z,23.10
2018-07-12T10:45:50.981Z,23.20
2018-07-12T10:50:47.678Z,23.40
2018-07-12T10:53:16.021Z,23.40
2018-07-12T10:55:44.467Z,23.50
2018-07-12T10:58:12.855Z,23.60
2018-07-12T11:00:41.772Z,23.60
2018-07-12T11:03:10.182Z,23.70
2018-07-12T11:05:38.672Z,23.60
2018-07-12T11:08:07.151Z,23.60
2018-07-12T11:10:35.672Z,23.80
2018-07-12T11:13:10.842Z,24.00
2018-07-12T11:15:39.565Z,24.20
2018-07-12T11:18:08.040Z,24.10
2018-07-12T11:20:36.536Z,24.00
2018-07-12T11:23:05.048Z,23.90
2018-07-12T11:25:33.682Z,24.00
2018-07-12T11:28:03.189Z,23.90
2018-07-12T11:30:32.711Z,23.90
2018-07-12T11:33:05.761Z,24.00
2018-07-12T11:35:34.367Z,24.20
2018-07-12T11:38:02.805Z,24.10
2018-07-12T11:40:31.284Z,24.10
2018-07-12T11:42:59.660Z,24.10
2018-07-12T11:45:28.118Z,24.20
2018-07-12T11:47:56.545Z,24.30
2018-07-12T11:50:25.009Z,24.20
2018-07-12T11:52:53.479Z,24.30
2018-07-12T11:55:21.855Z,24.40
2018-07-12T11:57:50.321Z,24.60
2018-07-12T12:00:18.744Z,24.60
2018-07-12T12:02:47.106Z,24.30
2018-07-12T12:05:15.601Z,24.20
2018-07-12T12:07:44.297Z,24.20
2018-07-12T12:10:12.725Z,24.50
2018-07-12T12:12:41.147Z,24.80
2018-07-12T12:15:09.512Z,25.00
2018-07-12T12:17:38.026Z,25.00
2018-07-12T12:20:06.344Z,25.00
2018-07-12T12:22:34.761Z,25.00
2018-07-12T12:25:03.217Z,25.10
2018-07-12T12:27:31.638Z,25.20
2018-07-12T12:29:59.995Z,25.20
2018-07-12T12:32:28.476Z,25.20
2018-07-12T12:34:56.840Z,25.20
2018-07-12T12:37:25.315Z,25.30
2018-07-12T12:39:53.760Z,25.30
2018-07-12T12:42:22.186Z,25.40
2018-07-12T12:44:50.614Z,25.40
2018-07-12T12:47:19.009Z,25.40
2018-07-12T12:49:47.449Z,25.40
2018-07-12T12:52:16.102Z,25.50
2018-07-12T12:54:44.499Z,25.50
2018-07-12T12:57:12.800Z,25.50
2018-07-12T12:59:41.217Z,25.40
2018-07-12T13:02:09.689Z,25.50
2018-07-12T13:04:38.899Z,25.70
2018-07-12T13:07:07.281Z,25.80
2018-07-12T13:09:35.745Z,25.60
2018-07-12T13:12:04.234Z,25.40
2018-07-12T13:14:32.542Z,25.30
2018-07-12T13:17:00.832Z,25.30
2018-07-12T13:19:29.200Z,25.50
2018-07-12T13:21:57.588Z,25.60
2018-07-12T13:24:26.276Z,25.60
2018-07-12T13:26:54.626Z,25.80
2018-07-12T13:29:23.094Z,25.70
2018-07-12T13:31:51.622Z,25.70
2018-07-12T13:34:20.340Z,25.70
2018-07-12T13:36:48.775Z,25.80
2018-07-12T13:39:17.103Z,25.70
2018-07-12T13:41:45.483Z,25.70
2018-07-12T13:44:25.290Z,25.90
2018-07-12T13:46:54.706Z,25.90
2018-07-12T13:49:23.134Z,25.90
2018-07-12T13:51:52.354Z,26.00
2018-07-12T13:54:21.088Z,26.00
2018-07-12T13:56:50.053Z,26.10
2018-07-12T13:59:18.489Z,26.00
2018-07-12T14:01:46.866Z,26.10
2018-07-12T14:04:15.370Z,26.00
2018-07-12T14:06:43.738Z,26.00
2018-07-12T14:09:13.316Z,26.00
2018-07-12T14:11:41.831Z,26.10
2018-07-12T14:14:10.447Z,26.20
2018-07-12T14:16:38.792Z,26.10
2018-07-12T14:19:07.235Z,26.20
2018-07-12T14:21:35.637Z,26.40
2018-07-12T14:24:04.268Z,26.20
2018-07-12T14:26:32.784Z,26.20
2018-07-12T14:29:01.219Z,26.30
2018-07-12T14:31:29.627Z,26.30
2018-07-12T14:33:58.105Z,26.20
2018-07-12T14:36:26.461Z,26.10
2018-07-12T14:38:54.805Z,26.20
2018-07-12T14:41:23.264Z,26.20
2018-07-12T14:43:51.596Z,26.00
2018-07-12T14:46:20.908Z,26.00
2018-07-12T14:48:49.462Z,26.20
2018-07-12T14:51:17.881Z,26.20
2018-07-12T14:53:46.362Z,26.30
2018-07-12T14:56:14.733Z,26.40
2018-07-12T14:58:43.142Z,26.50
2018-07-12T15:01:11.511Z,26.40
2018-07-12T15:03:40.073Z,26.30
2018-07-12T15:06:08.449Z,26.20
2018-07-12T15:08:36.837Z,26.30
2018-07-12T15:11:05.167Z,26.20
2018-07-12T15:13:33.896Z,26.40
2018-07-12T15:16:02.355Z,26.60
2018-07-12T15:18:30.824Z,26.80
2018-07-12T15:20:59.258Z,27.30
2018-07-12T15:23:27.621Z,27.70
2018-07-12T15:25:56.314Z,28.20
2018-07-12T15:28:24.766Z,28.50
2018-07-12T15:30:53.113Z,28.90
2018-07-12T15:33:21.522Z,28.80
2018-07-12T15:35:50.065Z,28.80
2018-07-12T15:38:18.590Z,28.60
2018-07-12T15:40:47.025Z,28.30
2018-07-12T15:43:15.316Z,28.10
2018-07-12T15:45:43.692Z,27.90
2018-07-12T15:48:12.101Z,28.10
2018-07-12T15:50:40.624Z,28.10
2018-07-12T15:53:08.988Z,28.20
2018-07-12T15:55:37.255Z,28.00
2018-07-12T15:58:05.601Z,27.80
2018-07-12T16:00:33.959Z,28.00
2018-07-12T16:03:02.286Z,28.00
2018-07-12T16:05:30.653Z,27.80
2018-07-12T16:07:58.993Z,27.60
2018-07-12T16:10:27.376Z,27.40
2018-07-12T16:12:55.822Z,27.20
2018-07-12T16:15:24.150Z,27.10
2018-07-12T16:17:52.712Z,26.90
2018-07-12T16:20:21.283Z,26.80
2018-07-12T16:22:49.773Z,26.50
2018-07-12T16:25:18.205Z,26.30
2018-07-12T16:27:46.771Z,26.30
2018-07-12T16:30:15.209Z,26.30
2018-07-12T16:32:43.624Z,26.10
2018-07-12T16:35:11.984Z,26.20
2018-07-12T16:37:40.613Z,26.20
2018-07-12T16:40:09.027Z,26.20
2018-07-12T16:42:37.512Z,26.20
2018-07-12T16:45:06.581Z,26.10
2018-07-12T16:47:34.998Z,25.70
2018-07-12T16:50:03.839Z,25.60
2018-07-12T16:52:32.952Z,25.40
2018-07-12T16:55:01.382Z,25.30
2018-07-12T16:59:57.894Z,25.00
2018-07-12T17:02:26.287Z,24.80
2018-07-12T17:04:54.712Z,24.60
2018-07-12T17:07:23.044Z,24.40
2018-07-12T17:09:51.398Z,24.30
2018-07-12T17:12:19.728Z,24.20
2018-07-12T17:14:48.058Z,24.00
2018-07-12T17:17:16.661Z,23.90
2018-07-12T17:19:45.150Z,23.70
2018-07-12T17:22:13.393Z,23.70
2018-07-12T17:24:41.758Z,23.50
2018-07-12T17:27:10.149Z,23.40
2018-07-12T17:29:40.453Z,23.20
2018-07-12T17:32:09.043Z,23.20
2018-07-12T17:34:37.403Z,23.00
2018-07-12T17:37:06.039Z,22.80
2018-07-12T17:39:34.616Z,22.80
2018-07-12T17:42:02.934Z,22.70
2018-07-12T17:44:31.305Z,22.70
2018-07-12T17:46:59.893Z,22.60
2018-07-12T17:49:28.447Z,22.50
2018-07-12T17:51:56.971Z,22.40
2018-07-12T17:54:25.352Z,22.40
2018-07-12T17:56:53.853Z,22.30
2018-07-12T17:59:22.270Z,22.30
2018-07-12T18:01:50.686Z,22.20
2018-07-12T18:04:19.070Z,22.20
2018-07-12T18:06:47.482Z,22.10
2018-07-12T18:09:15.890Z,22.00
2018-07-12T18:11:44.270Z,22.00
2018-07-12T18:14:12.707Z,21.90
2018-07-12T18:16:41.065Z,21.90
2018-07-12T18:19:09.480Z,21.80
2018-07-12T18:21:38.022Z,21.80
2018-07-12T18:24:06.559Z,21.70
2018-07-12T18:26:34.988Z,21.60
2018-07-12T18:29:03.496Z,21.50
2018-07-12T18:31:31.815Z,21.50
2018-07-12T18:34:00.229Z,21.40
2018-07-12T18:36:28.572Z,21.40
2018-07-12T18:38:57.078Z,21.30
2018-07-12T18:41:25.407Z,21.30
2018-07-12T18:43:53.771Z,21.10
2018-07-12T18:46:22.254Z,21.00
2018-07-12T18:48:50.570Z,20.90
2018-07-12T18:51:19.256Z,20.80
2018-07-12T18:53:47.589Z,20.80
2018-07-12T18:56:16.068Z,20.80
2018-07-12T18:58:44.485Z,20.80
2018-07-12T19:01:12.873Z,20.70
2018-07-12T19:03:41.367Z,20.80
2018-07-12T19:06:09.788Z,20.60
2018-07-12T19:08:38.187Z,20.50
2018-07-12T19:11:06.577Z,20.30
2018-07-12T19:13:35.045Z,20.30
2018-07-12T19:16:03.402Z,20.20
2018-07-12T19:18:31.778Z,20.00
2018-07-12T19:21:00.163Z,20.10
2018-07-12T19:23:28.636Z,19.90
2018-07-12T19:25:57.226Z,19.90
2018-07-12T19:28:25.636Z,19.70
2018-07-12T19:30:54.000Z,19.70
2018-07-12T19:33:22.403Z,19.60
2018-07-12T19:35:50.843Z,19.50
2018-07-12T19:38:19.298Z,19.40
2018-07-12T19:40:47.596Z,19.40
2018-07-12T19:43:16.120Z,19.30
2018-07-12T19:45:44.636Z,19.30
2018-07-12T19:48:13.133Z,19.20
2018-07-12T19:50:41.743Z,19.00
2018-07-12T19:53:10.382Z,19.00
2018-07-12T19:55:38.890Z,18.90
2018-07-12T19:58:07.247Z,18.90
2018-07-12T20:00:35.847Z,18.70
2018-07-12T20:03:04.511Z,18.70
2018-07-12T20:05:33.193Z,18.70
2018-07-12T20:08:01.638Z,18.60
2018-07-12T20:10:30.129Z,18.50
2018-07-12T20:12:58.457Z,18.50
2018-07-12T20:15:26.878Z,18.50
2018-07-12T20:17:55.339Z,18.50
2018-07-12T20:22:52.422Z,18.30
2018-07-12T20:25:20.928Z,18.30
2018-07-12T20:27:49.312Z,18.20
2018-07-12T20:30:17.762Z,18.10
2018-07-12T20:32:46.231Z,18.10
2018-07-12T20:35:14.787Z,18.00
2018-07-12T20:37:43.156Z,17.90
2018-07-12T20:40:11.939Z,17.90
2018-07-12T20:42:40.353Z,17.80
2018-07-12T20:45:08.706Z,17.80
2018-07-12T20:47:37.152Z,17.70
2018-07-12T20:50:05.671Z,17.70
2018-07-12T20:52:34.166Z,17.80
2018-07-12T20:55:02.528Z,17.70
2018-07-12T20:57:30.978Z,17.60
2018-07-12T20:59:59.660Z,17.60
2018-07-12T21:02:27.955Z,17.50
2018-07-12T21:05:03.027Z,17.50
2018-07-12T21:07:31.469Z,17.40
2018-07-12T21:10:00.559Z,17.30
2018-07-12T21:12:28.923Z,17.40
2018-07-12T21:14:57.270Z,17.30
2018-07-12T21:17:25.711Z,17.40
2018-07-12T21:19:54.271Z,17.20
2018-07-12T21:22:22.660Z,17.30
2018-07-12T21:24:51.188Z,17.30
2018-07-12T21:27:19.560Z,17.20
2018-07-12T21:29:48.136Z,17.20
2018-07-12T21:32:16.615Z,17.20
2018-07-12T21:34:45.138Z,17.20
2018-07-12T21:37:13.573Z,17.10
2018-07-12T21:39:41.946Z,17.10
2018-07-12T21:42:10.492Z,17.00
2018-07-12T21:44:43.464Z,17.00
2018-07-12T21:47:11.792Z,16.80
2018-07-12T21:49:40.125Z,16.90
2018-07-12T21:52:08.594Z,16.90
2018-07-12T21:54:36.940Z,16.90
2018-07-12T21:57:05.613Z,16.80
2018-07-12T21:59:34.529Z,16.80
2018-07-12T22:02:03.190Z,16.80
2018-07-12T22:04:31.702Z,16.80
2018-07-12T22:07:12.165Z,16.80
2018-07-12T22:09:40.603Z,16.70
2018-07-12T22:12:08.982Z,16.70
2018-07-12T22:14:37.496Z,16.70
2018-07-12T22:17:05.953Z,16.80
2018-07-12T22:19:34.425Z,16.70
2018-07-12T22:22:02.822Z,16.70
2018-07-12T22:24:31.157Z,16.70
2018-07-12T22:26:59.666Z,16.70
2018-07-12T22:29:28.160Z,16.70
2018-07-12T22:31:56.563Z,16.70
2018-07-12T22:34:25.136Z,16.60
2018-07-12T22:36:53.721Z,16.60
2018-07-12T22:39:22.313Z,16.50
2018-07-12T22:41:53.219Z,16.50
2018-07-12T22:44:21.619Z,16.50
2018-07-12T22:46:50.225Z,16.50
2018-07-12T22:49:18.957Z,16.40
2018-07-12T22:51:47.388Z,16.40
2018-07-12T22:54:16.032Z,16.40
2018-07-12T22:56:44.523Z,16.40
2018-07-12T22:59:12.875Z,16.40
2018-07-12T23:01:41.402Z,16.40
2018-07-12T23:04:09.854Z,16.30
2018-07-12T23:06:38.279Z,16.30
2018-07-12T23:09:06.798Z,16.30
2018-07-12T23:11:35.213Z,16.30
2018-07-12T23:14:03.748Z,16.20
2018-07-12T23:19:00.318Z,16.20
2018-07-12T23:21:29.028Z,16.20
2018-07-12T23:23:57.517Z,16.20
2018-07-12T23:26:26.004Z,16.10
2018-07-12T23:28:55.642Z,16.10
2018-07-12T23:31:24.089Z,16.20
2018-07-12T23:33:52.575Z,16.20
2018-07-12T23:36:23.358Z,16.20
2018-07-12T23:38:53.745Z,16.10
2018-07-12T23:41:22.388Z,16.00
2018-07-12T23:43:50.946Z,16.00
2018-07-12T23:46:19.359Z,16.00
2018-07-12T23:48:47.674Z,16.00
2018-07-12T23:51:16.084Z,15.90
2018-07-12T23:53:44.438Z,15.90
2018-07-12T23:56:12.969Z,16.00
2018-07-12T23:58:41.267Z,15.90
